Albert, New Mexico
Current Conditions -  °F | °C
As of 6:53 PM on Monday 20 Oct 2014 (Local Time) from KTCC Reporting Station
Clear Clear  
Wind Chill: 67°   Ceiling: Unl
Heat Index: 67°   Visibility: 10mi
Dew Point: 47°   Wind: 10mph
Humidity: 49%   Direction: 230°SW
Pressure: 30.09"   Gusts: NA
Location:  35.7181°N, 103.591°W
Report Text: KTCC 210053Z AUTO 23009KT 10SM CLR 19/08 A3009 RMK AO2 SLP155 T01940083
Loading
Personal Weather Stations






























Interactive Weather Map
Tropical Storm Tracking
New forecast layout! Learn more

10-Day Weather Forecast

Advertisements
Track Severe Weather on mobile